Time;durP1;ratioP1;P1;durP2;ratioP2;P2;SDS_P1;SDS_P2;PMS_P1;PMS_P2;Temp;Humidity;BMP_temperature;BMP_pressure;BME280_temperature;BME280_humidity;BME280_pressure;Samples;Min_cycle;Max_cycle;Signal;HPM_P1;HPM_P2
2023/09/29 00:00:12;;;;;;;11.75;2.90;;;;;;;14.02;53.83;101561.19;4986216;28;20083;-69
2023/09/29 00:02:38;;;;;;;10.68;3.38;;;;;;;14.11;53.61;101563.41;4981340;28;20063;-69
2023/09/29 00:05:04;;;;;;;12.15;2.83;;;;;;;14.13;53.33;101566.81;4985910;28;20076;-68
2023/09/29 00:07:29;;;;;;;8.00;2.80;;;;;;;14.13;53.56;101561.56;4986494;28;20050;-70
2023/09/29 00:09:55;;;;;;;11.93;3.72;;;;;;;14.20;53.25;101562.13;4983235;28;20041;-73
2023/09/29 00:12:20;;;;;;;10.20;3.58;;;;;;;14.15;53.20;101557.09;4979287;28;20049;-73
2023/09/29 00:14:46;;;;;;;16.63;3.88;;;;;;;14.01;53.27;101544.56;4980928;28;20029;-73
2023/09/29 00:17:11;;;;;;;13.40;3.70;;;;;;;13.93;53.27;101552.75;4963476;28;20046;-73
2023/09/29 00:19:37;;;;;;;25.13;4.90;;;;;;;13.88;53.23;101554.75;4970408;28;20034;-73
2023/09/29 00:22:04;;;;;;;17.20;3.75;;;;;;;13.82;53.30;101551.53;4977841;28;20497;-73
2023/09/29 00:24:29;;;;;;;10.23;3.75;;;;;;;13.76;53.78;101547.38;4980626;28;20034;-69
2023/09/29 00:26:55;;;;;;;9.90;3.83;;;;;;;13.72;54.07;101536.16;4981855;28;20113;-71
2023/09/29 00:29:20;;;;;;;12.55;2.75;;;;;;;13.77;54.06;101541.22;4975932;28;20030;-71
2023/09/29 00:31:46;;;;;;;9.70;2.90;;;;;;;13.81;53.75;101542.81;4979958;28;20527;-71
2023/09/29 00:34:11;;;;;;;12.90;2.83;;;;;;;13.82;53.95;101549.75;4984388;28;20382;-71
2023/09/29 00:36:38;;;;;;;16.15;4.38;;;;;;;13.94;53.34;101548.34;4979383;28;20037;-71
2023/09/29 00:39:07;;;;;;;13.30;4.15;;;;;;;13.94;53.67;101545.72;4972594;28;20046;-72
2023/09/29 00:41:32;;;;;;;9.05;2.72;;;;;;;13.81;53.77;101540.16;4975131;28;20030;-72
2023/09/29 00:43:58;;;;;;;14.82;3.17;;;;;;;13.86;53.58;101534.72;4958193;28;20421;-71
2023/09/29 00:46:25;;;;;;;17.33;3.22;;;;;;;13.86;53.64;101535.56;4960378;28;20034;-71
2023/09/29 00:48:52;;;;;;;13.77;2.40;;;;;;;13.88;53.46;101536.34;4977488;28;20037;-71
2023/09/29 00:51:21;;;;;;;13.40;2.42;;;;;;;13.87;53.57;101520.66;4976487;28;20045;-71
2023/09/29 00:53:50;;;;;;;11.00;2.85;;;;;;;13.85;53.28;101523.34;4983667;28;20049;-71
2023/09/29 00:56:16;;;;;;;9.48;2.80;;;;;;;13.81;53.52;101511.28;4966276;28;20037;-71
2023/09/29 00:58:42;;;;;;;8.80;2.45;;;;;;;13.83;53.81;101514.69;4965312;28;20133;-71
2023/09/29 01:01:11;;;;;;;9.68;2.40;;;;;;;13.89;53.53;101517.03;4959986;28;20670;-71
2023/09/29 01:03:37;;;;;;;9.10;2.80;;;;;;;13.95;53.61;101526.44;4962500;28;20759;-71
2023/09/29 01:06:06;;;;;;;13.43;3.45;;;;;;;14.01;53.30;101520.03;4954583;28;20138;-71
2023/09/29 01:08:31;;;;;;;13.68;3.38;;;;;;;14.06;53.06;101520.69;4982360;28;20056;-71
2023/09/29 01:10:57;;;;;;;10.32;2.72;;;;;;;14.05;53.19;101525.06;4984674;28;20042;-69
2023/09/29 01:13:22;;;;;;;15.18;2.75;;;;;;;14.09;53.25;101525.81;4976959;28;20050;-69
2023/09/29 01:15:49;;;;;;;12.52;3.65;;;;;;;14.10;53.34;101523.13;4979575;28;20083;-69
2023/09/29 01:18:16;;;;;;;8.50;2.95;;;;;;;14.02;53.50;101519.97;4981924;28;20169;-69
2023/09/29 01:20:43;;;;;;;11.73;3.63;;;;;;;13.90;53.62;101510.88;4971881;28;20030;-70
2023/09/29 01:23:09;;;;;;;11.25;2.80;;;;;;;13.78;54.01;101521.91;4951900;28;20130;-70
2023/09/29 01:25:37;;;;;;;14.60;3.75;;;;;;;13.76;53.93;101518.47;4975297;28;20517;-70
2023/09/29 01:28:05;;;;;;;10.20;3.63;;;;;;;13.77;54.38;101520.19;4964075;28;20053;-69
2023/09/29 01:30:31;;;;;;;11.07;3.95;;;;;;;13.78;54.37;101519.25;4951479;28;20026;-69
2023/09/29 01:32:57;;;;;;;13.70;3.47;;;;;;;13.78;54.41;101515.78;4966491;28;20130;-69
2023/09/29 01:35:23;;;;;;;10.98;2.78;;;;;;;13.76;54.06;101512.38;4963273;28;20053;-68
2023/09/29 01:37:53;;;;;;;9.65;3.20;;;;;;;13.81;54.09;101500.75;4957771;28;20050;-65
2023/09/29 01:40:23;;;;;;;13.20;2.97;;;;;;;13.85;53.94;101496.19;4975759;28;20069;-63
2023/09/29 01:42:50;;;;;;;11.07;3.15;;;;;;;13.79;53.92;101499.13;4980532;28;20037;-64
2023/09/29 01:45:17;;;;;;;9.73;3.33;;;;;;;13.77;53.82;101482.56;4974975;28;20030;-64
2023/09/29 01:47:45;;;;;;;20.55;3.17;;;;;;;13.84;53.68;101479.59;4977231;28;20046;-64
2023/09/29 01:50:14;;;;;;;14.68;4.45;;;;;;;13.85;53.75;101483.94;4981170;28;20022;-66
2023/09/29 01:52:40;;;;;;;5.38;2.40;;;;;;;13.86;53.89;101480.38;4979881;28;20050;-74
2023/09/29 01:55:08;;;;;;;8.52;2.65;;;;;;;13.89;53.83;101474.97;4977322;28;20034;-74
2023/09/29 01:57:34;;;;;;;11.57;3.03;;;;;;;13.87;53.89;101482.06;4966227;28;20054;-74
2023/09/29 02:00:00;;;;;;;8.88;2.70;;;;;;;13.88;54.17;101483.81;4979942;28;20034;-75
2023/09/29 02:02:25;;;;;;;12.55;3.05;;;;;;;13.91;54.04;101485.44;4977665;28;21034;-73
2023/09/29 02:04:52;;;;;;;12.55;4.63;;;;;;;13.86;54.23;101482.16;4963358;28;20109;-73
2023/09/29 02:07:19;;;;;;;10.13;2.90;;;;;;;13.82;54.11;101481.44;4980462;28;20061;-73
2023/09/29 02:09:44;;;;;;;7.85;2.92;;;;;;;13.94;54.15;101470.41;4978327;28;20033;-72
2023/09/29 02:12:10;;;;;;;9.73;3.63;;;;;;;14.01;53.89;101464.84;4965744;28;20053;-72
2023/09/29 02:14:36;;;;;;;9.25;3.85;;;;;;;14.01;53.98;101464.84;4985045;28;20038;-72
2023/09/29 02:17:04;;;;;;;13.82;3.63;;;;;;;14.13;53.83;101459.03;4987968;28;20049;-72
2023/09/29 02:19:36;;;;;;;12.55;4.13;;;;;;;14.18;53.51;101464.94;4970868;28;20030;-75
2023/09/29 02:22:02;;;;;;;;;;;;;;;14.20;53.62;101460.47;4984836;28;20109;-73
2023/09/29 02:24:29;;;;;;;15.18;4.10;;;;;;;14.17;53.81;101455.34;4977481;28;20417;-72
2023/09/29 02:26:55;;;;;;;9.07;4.43;;;;;;;14.07;53.80;101447.00;4983001;28;20045;-72
2023/09/29 02:29:21;;;;;;;12.45;4.10;;;;;;;13.98;54.07;101450.06;4986696;28;20572;-73
2023/09/29 02:31:46;;;;;;;13.55;4.45;;;;;;;14.03;54.12;101449.84;4982427;28;20065;-68
2023/09/29 02:34:15;;;;;;;10.98;3.70;;;;;;;14.01;53.99;101454.31;4979490;28;20046;-70
2023/09/29 02:36:40;;;;;;;8.30;3.83;;;;;;;14.02;54.30;101451.63;4979682;28;20404;-71
2023/09/29 02:39:08;;;;;;;12.68;4.13;;;;;;;14.04;54.48;101455.06;4988742;28;20030;-71
2023/09/29 02:41:34;;;;;;;8.65;3.97;;;;;;;14.08;53.97;101458.41;4989746;28;20124;-72
2023/09/29 02:44:01;;;;;;;14.02;4.15;;;;;;;14.09;54.36;101445.16;4984170;28;20072;-73
2023/09/29 02:46:27;;;;;;;15.18;4.88;;;;;;;14.10;54.17;101449.53;4978042;28;20034;-71
2023/09/29 02:48:52;;;;;;;12.02;5.10;;;;;;;14.07;54.31;101443.53;4983355;28;20054;-70
2023/09/29 02:51:19;;;;;;;14.10;4.57;;;;;;;14.09;54.34;101444.31;4981445;28;20088;-73
2023/09/29 02:53:48;;;;;;;10.68;4.18;;;;;;;14.19;54.16;101444.75;4981897;28;20293;-72
2023/09/29 02:56:17;;;;;;;11.48;5.13;;;;;;;14.23;53.86;101441.94;4970166;28;20038;-72
2023/09/29 02:58:46;;;;;;;13.13;5.13;;;;;;;14.17;54.00;101450.09;4989834;28;20046;-73
2023/09/29 03:01:12;;;;;;;13.18;5.07;;;;;;;14.06;54.49;101444.47;4982439;28;20023;-72
2023/09/29 03:03:44;;;;;;;15.35;5.28;;;;;;;14.02;54.47;101440.28;4986165;28;20088;-73
2023/09/29 03:06:20;;;;;;;13.88;4.88;;;;;;;13.96;54.98;101441.41;4984926;28;20065;-71
2023/09/29 03:08:53;;;;;;;10.15;4.90;;;;;;;13.92;55.05;101435.44;4974718;28;20458;-73
2023/09/29 03:11:18;;;;;;;13.13;5.32;;;;;;;13.97;55.02;101429.97;4987182;28;20045;-73
2023/09/29 03:13:44;;;;;;;12.82;5.25;;;;;;;13.86;55.27;101433.09;4988568;28;20061;-71
2023/09/29 03:16:10;;;;;;;14.55;5.72;;;;;;;13.88;55.51;101439.13;4978642;28;20105;-72
2023/09/29 03:18:36;;;;;;;9.20;5.28;;;;;;;13.89;55.45;101432.94;4980328;28;20450;-71
2023/09/29 03:21:04;;;;;;;14.70;4.95;;;;;;;13.95;55.57;101431.81;4982801;28;20242;-72
2023/09/29 03:23:33;;;;;;;18.80;6.30;;;;;;;13.94;55.37;101427.47;4975460;28;20046;-71
2023/09/29 03:25:59;;;;;;;15.70;7.13;;;;;;;13.85;55.85;101425.25;4979992;28;20496;-70
2023/09/29 03:28:25;;;;;;;11.30;6.00;;;;;;;13.84;55.95;101421.78;4963370;28;20076;-70
2023/09/29 03:30:51;;;;;;;16.20;7.00;;;;;;;13.88;55.93;101423.38;4971168;28;20691;-71
2023/09/29 03:33:17;;;;;;;11.73;6.03;;;;;;;13.90;55.96;101416.25;4964466;28;20225;-69
2023/09/29 03:35:42;;;;;;;18.38;6.43;;;;;;;13.90;55.92;101400.50;4961631;28;20026;-71
2023/09/29 03:38:08;;;;;;;12.13;5.47;;;;;;;13.96;55.85;101404.59;4960537;28;20050;-69
2023/09/29 03:40:34;;;;;;;16.15;6.93;;;;;;;13.99;55.75;101396.59;4960251;28;21844;-70
2023/09/29 03:42:59;;;;;;;15.05;8.30;;;;;;;13.93;55.88;101397.72;4972066;28;20653;-68
2023/09/29 03:45:26;;;;;;;20.15;7.55;;;;;;;13.93;56.18;101394.25;4975599;28;20587;-69
2023/09/29 03:47:51;;;;;;;20.27;8.05;;;;;;;13.90;56.10;101387.38;4973730;28;20563;-70
2023/09/29 03:50:17;;;;;;;11.75;7.38;;;;;;;13.97;56.15;101389.72;4961670;28;20133;-71
2023/09/29 03:52:45;;;;;;;13.23;7.28;;;;;;;13.96;56.28;101388.00;4968201;28;20047;-68
2023/09/29 03:55:12;;;;;;;19.00;7.15;;;;;;;13.99;56.08;101387.88;4961307;28;20125;-69
2023/09/29 03:57:38;;;;;;;17.27;6.80;;;;;;;13.93;56.46;101392.47;4942966;28;20042;-69
2023/09/29 04:00:11;;;;;;;15.80;7.18;;;;;;;13.99;56.28;101398.38;4960825;28;20034;-69
2023/09/29 04:02:40;;;;;;;12.00;6.72;;;;;;;13.98;56.18;101391.41;4957415;28;20043;-68
2023/09/29 04:05:06;;;;;;;13.65;6.35;;;;;;;14.06;56.27;101389.28;4959141;28;20089;-72
2023/09/29 04:07:34;;;;;;;16.45;7.93;;;;;;;14.03;56.44;101390.28;4957347;28;20039;-71
2023/09/29 04:10:01;;;;;;;13.07;6.63;;;;;;;14.00;56.38;101389.56;4961392;28;20278;-70
2023/09/29 04:12:27;;;;;;;14.85;7.82;;;;;;;13.89;56.75;101382.16;4950219;28;20135;-71
2023/09/29 04:14:52;;;;;;;13.88;6.65;;;;;;;13.75;56.93;101368.81;4947118;28;20018;-70
2023/09/29 04:17:18;;;;;;;16.00;7.38;;;;;;;13.94;56.65;101360.03;4960672;28;20433;-71
2023/09/29 04:19:44;;;;;;;15.38;6.97;;;;;;;13.94;56.38;101356.50;4957664;28;20269;-69
2023/09/29 04:22:09;;;;;;;14.40;6.97;;;;;;;13.91;56.66;101354.03;4961250;28;20043;-69
2023/09/29 04:24:36;;;;;;;16.00;7.60;;;;;;;13.86;56.83;101351.63;4948975;28;20422;-69
2023/09/29 04:27:02;;;;;;;15.25;7.68;;;;;;;13.86;56.91;101346.38;4961992;28;20042;-70
2023/09/29 04:29:27;;;;;;;13.00;6.78;;;;;;;13.90;56.92;101347.09;4965068;28;20039;-69
2023/09/29 04:31:52;;;;;;;17.90;8.55;;;;;;;13.94;56.67;101349.50;4963098;28;20569;-70
2023/09/29 04:34:18;;;;;;;17.63;8.18;;;;;;;13.90;56.91;101334.81;4959682;28;20031;-70
2023/09/29 04:36:44;;;;;;;12.32;7.72;;;;;;;13.90;56.79;101337.44;4958462;28;20461;-66
2023/09/29 04:39:09;;;;;;;14.98;7.05;;;;;;;13.88;56.77;101343.69;4960902;28;20026;-70
2023/09/29 04:41:35;;;;;;;14.30;7.00;;;;;;;14.01;56.76;101347.44;4956702;28;20973;-70
2023/09/29 04:44:00;;;;;;;17.42;8.63;;;;;;;13.92;56.91;101325.06;4961012;28;20137;-70
2023/09/29 04:46:26;;;;;;;13.82;8.50;;;;;;;13.93;56.70;101326.78;4959733;28;20042;-70
2023/09/29 04:48:53;;;;;;;14.90;8.00;;;;;;;13.89;56.65;101330.47;4961560;28;20105;-71
2023/09/29 04:51:19;;;;;;;13.85;8.23;;;;;;;13.97;56.64;101334.53;4956828;28;20040;-73
2023/09/29 04:53:45;;;;;;;18.70;9.13;;;;;;;13.92;56.81;101330.34;4960836;28;20483;-73
2023/09/29 04:56:11;;;;;;;16.35;8.02;;;;;;;13.92;56.97;101334.75;4947932;28;20093;-73
2023/09/29 04:58:36;;;;;;;14.60;6.57;;;;;;;13.89;56.82;101319.09;4955331;28;20139;-73
2023/09/29 05:01:03;;;;;;;15.32;8.10;;;;;;;13.91;56.98;101322.50;4960953;28;20026;-73
2023/09/29 05:03:28;;;;;;;23.90;9.15;;;;;;;13.89;56.98;101335.72;4969586;28;20049;-73
2023/09/29 05:05:54;;;;;;;17.73;8.65;;;;;;;13.87;57.14;101331.47;4986790;28;20132;-73
2023/09/29 05:08:19;;;;;;;20.92;8.52;;;;;;;13.92;57.13;101319.81;4975259;28;20061;-72
2023/09/29 05:10:45;;;;;;;21.92;9.00;;;;;;;14.01;56.91;101322.91;4979096;28;20044;-72
2023/09/29 05:13:10;;;;;;;12.70;7.88;;;;;;;14.04;56.74;101333.31;4978448;28;20572;-72
2023/09/29 05:15:36;;;;;;;18.10;8.88;;;;;;;14.04;56.82;101333.31;4975990;28;20042;-73
2023/09/29 05:18:05;;;;;;;15.80;8.07;;;;;;;13.97;57.06;101329.28;4984813;28;20043;-73
2023/09/29 05:20:30;;;;;;;18.40;8.60;;;;;;;13.94;56.99;101312.72;4975695;28;20045;-73
2023/09/29 05:22:56;;;;;;;12.05;7.35;;;;;;;14.01;57.12;101325.53;4976871;28;20061;-72
2023/09/29 05:25:22;;;;;;;17.58;8.98;;;;;;;14.03;56.90;101323.69;4978326;28;20137;-73
2023/09/29 05:27:47;;;;;;;19.50;9.73;;;;;;;13.90;57.14;101316.41;4979132;28;20134;-69
2023/09/29 05:30:13;;;;;;;16.23;9.35;;;;;;;13.96;57.01;101310.00;4965379;28;20104;-71
2023/09/29 05:32:39;;;;;;;23.70;9.48;;;;;;;14.03;57.03;101314.06;4975529;28;20693;-69
2023/09/29 05:35:05;;;;;;;15.75;9.65;;;;;;;14.09;56.98;101313.75;4984510;28;20034;-70
2023/09/29 05:37:31;;;;;;;25.27;9.98;;;;;;;14.07;57.15;101309.50;4980226;28;20042;-68
2023/09/29 05:40:02;;;;;;;18.05;9.85;;;;;;;14.02;57.20;101314.97;4977432;28;20030;-67
2023/09/29 05:42:28;;;;;;;17.95;8.88;;;;;;;13.88;57.76;101302.50;4959023;28;20053;-68
2023/09/29 05:44:54;;;;;;;21.35;10.82;;;;;;;14.07;57.15;101305.09;4975269;28;20041;-67
2023/09/29 05:47:20;;;;;;;18.33;8.50;;;;;;;14.18;57.19;101314.25;4980020;28;20081;-67
2023/09/29 05:49:46;;;;;;;20.13;10.13;;;;;;;14.06;57.31;101315.69;4980638;28;20034;-67
2023/09/29 05:52:12;;;;;;;15.88;9.10;;;;;;;14.14;57.03;101303.88;4978311;28;20333;-68
2023/09/29 05:54:37;;;;;;;16.48;10.35;;;;;;;14.02;57.46;101314.13;4977665;28;20040;-68
2023/09/29 05:57:03;;;;;;;17.60;9.30;;;;;;;14.19;56.93;101310.66;4979825;28;20359;-68
2023/09/29 05:59:29;;;;;;;21.08;9.43;;;;;;;14.10;57.32;101312.00;4979781;28;20523;-67
2023/09/29 06:01:55;;;;;;;17.58;9.00;;;;;;;14.26;56.85;101326.09;4989094;28;20040;-68
2023/09/29 06:04:22;;;;;;;15.75;9.65;;;;;;;14.35;56.89;101320.38;4977659;28;20057;-71
2023/09/29 06:06:48;;;;;;;17.80;10.02;;;;;;;14.38;56.67;101310.63;4980072;28;20199;-71
2023/09/29 06:09:14;;;;;;;16.95;11.02;;;;;;;14.27;56.97;101300.66;4982692;28;20643;-69
2023/09/29 06:11:40;;;;;;;21.27;10.20;;;;;;;14.35;56.61;101295.88;4977757;28;20081;-69
2023/09/29 06:14:06;;;;;;;16.92;8.75;;;;;;;14.38;57.11;101310.63;4982499;28;20133;-70
2023/09/29 06:16:32;;;;;;;22.00;10.30;;;;;;;14.33;57.23;101313.50;4977761;28;20049;-70
2023/09/29 06:18:58;;;;;;;16.33;9.30;;;;;;;14.53;56.68;101325.69;4990011;28;20039;-71
2023/09/29 06:21:24;;;;;;;17.88;9.25;;;;;;;14.56;56.47;101322.91;4978273;28;20037;-68
2023/09/29 06:23:49;;;;;;;15.07;8.98;;;;;;;14.51;56.78;101317.03;4979284;28;20097;-66
2023/09/29 06:26:15;;;;;;;19.40;9.30;;;;;;;14.62;56.21;101322.59;4982888;28;20030;-68
2023/09/29 06:28:41;;;;;;;18.33;10.10;;;;;;;14.49;56.39;101311.00;4962927;28;20039;-67
2023/09/29 06:31:07;;;;;;;19.33;8.88;;;;;;;14.54;56.67;101295.81;4962658;28;20145;-69
2023/09/29 06:33:32;;;;;;;13.45;8.85;;;;;;;14.61;56.84;101301.63;4955748;28;20039;-69
2023/09/29 06:35:58;;;;;;;17.05;9.18;;;;;;;14.60;56.68;101306.03;4962167;28;20041;-70
2023/09/29 06:38:24;;;;;;;23.33;10.02;;;;;;;14.70;56.15;101309.06;4958914;28;20096;-67
2023/09/29 06:40:51;;;;;;;19.60;8.75;;;;;;;14.74;56.00;101308.81;4961629;28;20030;-70
2023/09/29 06:43:17;;;;;;;15.25;9.57;;;;;;;14.83;56.05;101314.56;4976573;28;20042;-70
2023/09/29 06:45:43;;;;;;;16.70;9.20;;;;;;;14.81;55.94;101309.34;4957969;28;20073;-70
2023/09/29 06:48:08;;;;;;;14.88;9.18;;;;;;;14.73;56.22;101301.03;4962052;28;20047;-68
2023/09/29 06:50:34;;;;;;;18.65;9.63;;;;;;;14.64;56.60;101310.22;4958420;28;20090;-68
2023/09/29 06:52:59;;;;;;;15.05;8.73;;;;;;;14.70;56.50;101307.31;4971125;28;20045;-68
2023/09/29 06:55:25;;;;;;;21.58;9.18;;;;;;;14.86;56.15;101311.78;4977585;28;20730;-69
2023/09/29 06:57:51;;;;;;;14.65;8.45;;;;;;;14.72;56.38;101313.34;4979606;28;20518;-68
2023/09/29 07:00:17;;;;;;;15.40;9.15;;;;;;;14.74;56.61;101313.25;4981692;28;20040;-70
2023/09/29 07:02:43;;;;;;;13.57;8.73;;;;;;;14.84;56.33;101314.47;4975531;28;20046;-67
2023/09/29 07:05:09;;;;;;;14.30;8.10;;;;;;;14.80;56.01;101318.19;4982792;28;23039;-68
2023/09/29 07:07:34;;;;;;;16.00;8.48;;;;;;;14.76;56.36;101301.69;4977202;28;20513;-68
2023/09/29 07:10:00;;;;;;;12.80;8.13;;;;;;;14.88;56.04;101299.38;4979351;28;20022;-67
2023/09/29 07:12:25;;;;;;;17.10;7.85;;;;;;;14.92;55.80;101298.28;4978662;28;20601;-67
2023/09/29 07:14:51;;;;;;;13.07;7.63;;;;;;;14.85;56.12;101304.81;4969649;28;20038;-68
2023/09/29 07:17:17;;;;;;;15.88;8.15;;;;;;;14.85;56.07;101292.50;4981544;28;20056;-67
2023/09/29 07:19:43;;;;;;;17.55;7.47;;;;;;;14.96;55.77;101294.56;4977601;28;20041;-68
2023/09/29 07:22:09;;;;;;;13.52;7.38;;;;;;;14.97;55.91;101293.66;4996723;28;20634;-67
2023/09/29 07:24:34;;;;;;;17.08;6.97;;;;;;;14.95;56.24;101285.00;4975143;28;20038;-67
2023/09/29 07:27:00;;;;;;;12.80;7.07;;;;;;;15.04;56.11;101289.78;4974933;28;20108;-67
2023/09/29 07:29:26;;;;;;;18.25;7.18;;;;;;;14.95;56.35;101287.63;4981238;28;20461;-68
2023/09/29 07:31:51;;;;;;;15.13;7.43;;;;;;;15.01;55.83;101287.28;4983611;28;20578;-67
2023/09/29 07:34:17;;;;;;;11.07;6.30;;;;;;;15.08;55.71;101286.06;4980007;28;20132;-68
2023/09/29 07:36:44;;;;;;;8.70;6.38;;;;;;;15.04;55.97;101295.03;4975402;28;20061;-67
2023/09/29 07:39:17;;;;;;;14.40;7.30;;;;;;;15.02;56.07;101290.78;4984170;28;20045;-68
2023/09/29 07:41:43;;;;;;;11.23;5.90;;;;;;;15.18;55.44;101289.88;4976643;28;20041;-67
2023/09/29 07:44:09;;;;;;;10.65;7.57;;;;;;;15.16;55.61;101293.53;4983096;28;20035;-67
2023/09/29 07:46:35;;;;;;;10.55;6.10;;;;;;;15.22;55.53;101293.25;4977126;28;20558;-67
2023/09/29 07:49:04;;;;;;;11.00;6.53;;;;;;;15.36;55.35;101300.41;4980472;28;20476;-68
2023/09/29 07:51:30;;;;;;;9.90;5.53;;;;;;;15.35;54.63;101296.94;4992072;28;20034;-69
2023/09/29 07:53:57;;;;;;;10.73;5.30;;;;;;;15.79;54.58;101300.69;4988256;28;20056;-69
2023/09/29 07:56:23;;;;;;;8.65;5.95;;;;;;;16.06;53.38;101302.75;4979267;28;20042;-71
2023/09/29 07:59:25;;;;;;;13.05;5.60;;;;;;;16.22;52.37;101295.69;4981969;28;21935;-69
2023/09/29 08:01:52;;;;;;;11.43;6.53;;;;;;;16.44;51.82;101294.44;4982970;28;20267;-69
2023/09/29 08:04:18;;;;;;;10.52;6.47;;;;;;;16.60;51.73;101295.25;4983402;28;20049;-69
2023/09/29 08:06:43;;;;;;;12.93;7.15;;;;;;;17.14;49.99;101292.91;4975171;28;20034;-69
2023/09/29 08:09:11;;;;;;;13.15;6.25;;;;;;;17.48;49.58;101290.84;4980366;28;20034;-69
2023/09/29 08:11:42;;;;;;;13.82;6.40;;;;;;;17.69;49.07;101290.41;4977743;28;20038;-69
2023/09/29 08:14:09;;;;;;;12.82;6.13;;;;;;;17.22;49.31;101282.72;4969571;28;20065;-69
2023/09/29 08:16:34;;;;;;;8.15;6.13;;;;;;;17.26;49.71;101287.81;4975783;28;20069;-69
2023/09/29 08:19:01;;;;;;;7.22;5.47;;;;;;;16.87;50.17;101286.63;4983288;28;20065;-69
2023/09/29 08:21:26;;;;;;;9.07;5.85;;;;;;;16.54;51.01;101291.19;4979499;28;20113;-69
2023/09/29 08:23:52;;;;;;;11.52;6.25;;;;;;;16.44;51.60;101294.44;4975916;28;20092;-70
2023/09/29 08:26:17;;;;;;;9.00;4.88;;;;;;;16.50;51.66;101296.72;4984276;28;20527;-69
2023/09/29 08:28:43;;;;;;;9.93;5.55;;;;;;;16.52;51.77;101297.47;4981738;28;20553;-69
2023/09/29 08:31:13;;;;;;;8.43;4.80;;;;;;;16.70;51.56;101296.38;4978723;28;20489;-69
2023/09/29 08:33:39;;;;;;;11.30;6.15;;;;;;;17.05;50.81;101296.09;4992265;28;20042;-69
2023/09/29 08:36:04;;;;;;;7.43;4.28;;;;;;;18.02;48.62;101285.59;4979406;28;20081;-69
2023/09/29 08:38:30;;;;;;;9.40;5.57;;;;;;;18.25;48.93;101293.84;4984071;28;20140;-69
2023/09/29 08:40:58;;;;;;;5.55;3.60;;;;;;;19.03;46.01;101287.72;4983121;28;20124;-69
2023/09/29 08:43:28;;;;;;;6.85;4.18;;;;;;;19.22;45.35;101293.44;4980255;28;20050;-69
2023/09/29 08:45:58;;;;;;;9.40;4.57;;;;;;;19.61;44.75;101290.75;4976880;28;20037;-69
2023/09/29 08:48:24;;;;;;;10.00;4.18;;;;;;;20.50;43.89;101298.31;4981104;28;20129;-70
2023/09/29 08:50:55;;;;;;;7.88;3.92;;;;;;;21.10;41.64;101282.28;4976955;28;20035;-69
2023/09/29 08:53:24;;;;;;;7.88;3.85;;;;;;;21.28;41.07;101282.63;4979113;28;20046;-71
2023/09/29 08:55:52;;;;;;;4.63;3.63;;;;;;;21.64;41.06;101297.47;4975472;28;20042;-69
2023/09/29 08:58:21;;;;;;;8.27;3.60;;;;;;;22.24;38.60;101289.09;4978997;28;20054;-69
2023/09/29 09:00:48;;;;;;;8.30;3.58;;;;;;;21.99;40.04;101291.13;4980440;28;20034;-70
2023/09/29 09:03:14;;;;;;;8.30;3.83;;;;;;;21.68;40.06;101290.94;4977681;28;20053;-69
2023/09/29 09:05:39;;;;;;;6.45;3.45;;;;;;;21.56;40.26;101289.28;4984638;28;20038;-69
2023/09/29 09:08:05;;;;;;;10.77;3.85;;;;;;;22.08;39.41;101285.06;4977149;28;20221;-67
2023/09/29 09:10:35;;;;;;;8.88;3.63;;;;;;;21.85;39.92;101288.75;4982443;28;20034;-69
2023/09/29 09:13:02;;;;;;;6.60;3.10;;;;;;;21.68;40.42;101290.09;4966965;28;20116;-69
2023/09/29 09:15:28;;;;;;;5.90;3.10;;;;;;;21.49;40.59;101283.63;4980711;28;20042;-70
2023/09/29 09:17:54;;;;;;;6.53;3.40;;;;;;;21.00;41.75;101286.59;4977344;28;21267;-68
2023/09/29 09:20:20;;;;;;;9.60;3.33;;;;;;;20.89;42.25;101290.97;4985872;28;20125;-70
2023/09/29 09:23:03;;;;;;;6.47;3.50;;;;;;;20.73;42.35;101280.66;4976033;28;20049;-67
2023/09/29 09:25:42;;;;;;;7.57;3.03;;;;;;;20.35;43.58;101286.22;4977927;28;20030;-70
2023/09/29 09:28:17;;;;;;;7.30;3.60;;;;;;;20.65;42.66;101276.88;4978273;28;20193;-68
2023/09/29 09:30:47;;;;;;;4.80;2.67;;;;;;;20.56;43.59;101274.94;4991785;28;20635;-67
2023/09/29 09:33:25;;;;;;;5.97;3.20;;;;;;;20.73;42.53;101280.66;4969127;28;20038;-67
2023/09/29 09:35:51;;;;;;;5.47;3.45;;;;;;;20.64;43.60;101276.06;4975197;28;20096;-68
2023/09/29 09:38:17;;;;;;;5.03;2.80;;;;;;;20.82;43.04;101279.09;4982368;28;20050;-69
2023/09/29 09:40:48;;;;;;;9.10;2.40;;;;;;;21.25;42.10;101283.72;4979842;28;20045;-67
2023/09/29 09:43:13;;;;;;;6.57;2.23;;;;;;;20.57;43.49;101292.56;4978817;28;20073;-70
2023/09/29 09:45:40;;;;;;;5.47;2.72;;;;;;;20.35;44.13;101280.91;4983398;28;20069;-70
2023/09/29 09:48:08;;;;;;;7.90;2.97;;;;;;;20.11;44.60;101287.06;4982893;28;20050;-67
2023/09/29 09:50:36;;;;;;;6.65;2.83;;;;;;;20.04;44.65;101282.34;4965609;28;20669;-67
2023/09/29 09:53:06;;;;;;;5.68;2.38;;;;;;;20.45;44.42;101289.03;4977360;28;20050;-70
2023/09/29 09:55:41;;;;;;;5.88;2.10;;;;;;;19.98;45.87;101293.38;4978035;28;20105;-69
2023/09/29 09:58:12;;;;;;;3.80;2.38;;;;;;;20.03;45.17;101280.63;4975843;28;20677;-69
2023/09/29 10:00:39;;;;;;;;;;;;;;;19.56;46.16;101283.13;4977944;28;20496;-69
2023/09/29 10:03:11;;;;;;;4.40;2.08;;;;;;;20.44;45.15;101279.34;4978827;28;19957;-69
2023/09/29 10:05:40;;;;;;;5.32;2.25;;;;;;;20.59;44.44;101274.69;4974869;28;20559;-69
2023/09/29 10:08:10;;;;;;;3.00;1.75;;;;;;;20.63;44.09;101270.84;4978964;28;20361;-69
2023/09/29 10:10:41;;;;;;;6.78;2.22;;;;;;;20.42;44.64;101273.34;4978048;28;20042;-69
2023/09/29 10:13:14;;;;;;;5.72;2.25;;;;;;;20.52;44.58;101279.63;4974017;28;20057;-69
2023/09/29 10:15:41;;;;;;;7.53;2.17;;;;;;;21.60;43.01;101269.47;4984937;28;20042;-69
2023/09/29 10:18:13;;;;;;;5.32;2.17;;;;;;;21.77;42.01;101274.22;4984589;28;20500;-69
2023/09/29 10:20:38;;;;;;;4.32;2.28;;;;;;;21.73;42.37;101280.78;4975156;28;20042;-69
2023/09/29 10:23:07;;;;;;;11.43;2.28;;;;;;;21.68;42.33;101271.50;4976865;28;20056;-69
2023/09/29 10:25:36;;;;;;;6.28;1.85;;;;;;;20.85;43.79;101278.88;4977856;28;20061;-69
2023/09/29 10:28:12;;;;;;;2.72;1.50;;;;;;;20.36;45.10;101276.44;4973539;28;20125;-69
2023/09/29 10:30:40;;;;;;;3.25;1.85;;;;;;;20.44;44.36;101259.00;4976992;28;20034;-69
2023/09/29 10:33:13;;;;;;;3.50;1.27;;;;;;;19.97;46.19;101275.75;4973825;28;20551;-69
2023/09/29 10:35:47;;;;;;;6.97;1.45;;;;;;;20.18;45.93;101268.03;4978410;28;20034;-69
2023/09/29 10:38:26;;;;;;;4.47;2.00;;;;;;;20.79;44.23;101271.34;4983358;28;20469;-69
2023/09/29 10:40:55;;;;;;;4.47;1.65;;;;;;;19.57;47.41;101279.53;4983670;28;20069;-70
2023/09/29 10:43:23;;;;;;;6.85;1.23;;;;;;;20.58;45.44;101260.56;4978995;28;20335;-69
2023/09/29 10:45:50;;;;;;;6.20;1.55;;;;;;;21.52;43.22;101264.75;4978079;28;20034;-69
2023/09/29 10:48:26;;;;;;;4.07;1.42;;;;;;;22.31;41.98;101253.84;4981475;28;20058;-69
2023/09/29 10:50:52;;;;;;;6.95;1.50;;;;;;;22.56;42.23;101257.09;4981348;28;20046;-69
2023/09/29 10:53:21;;;;;;;4.05;1.65;;;;;;;21.88;41.80;101259.22;4968162;28;20080;-69
2023/09/29 10:55:52;;;;;;;4.70;1.80;;;;;;;22.12;41.40;101251.91;4978955;28;20025;-69
2023/09/29 10:58:19;;;;;;;5.28;1.58;;;;;;;22.51;42.17;101246.81;4979262;28;20143;-69
2023/09/29 11:00:52;;;;;;;7.57;1.63;;;;;;;21.81;42.31;101256.22;4976765;28;20030;-69
2023/09/29 11:03:24;;;;;;;5.18;1.27;;;;;;;22.21;40.74;101254.78;4975711;28;20048;-69
2023/09/29 11:05:53;;;;;;;4.70;2.00;;;;;;;22.01;42.45;101262.56;4976393;28;20859;-69
2023/09/29 11:08:28;;;;;;;5.32;1.80;;;;;;;22.73;41.23;101261.00;4977397;28;20056;-69
2023/09/29 11:11:00;;;;;;;3.88;1.70;;;;;;;22.21;41.68;101262.75;4984875;28;20042;-69
2023/09/29 11:13:27;;;;;;;2.80;1.33;;;;;;;22.07;42.11;101256.72;4991621;28;20045;-69
2023/09/29 11:15:53;;;;;;;5.30;1.20;;;;;;;22.16;41.93;101261.31;4976885;28;20543;-69
2023/09/29 11:18:30;;;;;;;2.47;1.40;;;;;;;20.92;44.45;101269.47;4977576;28;20576;-69